Latest Weather Observations for Merriwa

IDN60801

Issued at 11:35 am EDT Thursday 23 October 2014 (issued every 30 minutes, with the page automatically refreshed every 10 minutes)

About weather observations | Map of weather stations | Latest weather observations for NSW | Other Formats
Station Details ID: 061287 Name: MERRIWA (ROSCOMMON) Lat: -32.19 Lon: 150.17 Height: 375.0 m
Data from the previous 72 hours. | See also: Recent months at Merriwa
Date/Time
EDT
Temp
°C
App
Temp
°C
Dew
Point
Rel
Hum
%
Delta-T
°C
Wind Press
QNH
hPa
Press
MSL
hPa
Rain
since 9 am
mm
Dir
 
Spd
km/h
Gust
km/h
Spd
kts
Gust
kts
23/11:30am 28.9 27.0 9.1 29 11.1 W 9 20 5 11 1019.6 1019.1 0.0
23/11:00am 28.0 25.6 10.2 33 10.1 SSW 13 20 7 11 1020.3 1019.7 0.0
23/10:30am 27.1 24.3 9.9 34 9.7 W 15 24 8 13 1020.5 1019.9 0.0
23/10:00am 25.2 22.3 9.5 37 8.7 W 15 20 8 11 1020.7 1020.1 0.0
23/09:30am 23.9 22.3 10.2 42 7.7 NW 9 13 5 7 1020.4 1019.8 0.0
23/09:00am 21.2 19.9 10.1 49 6.1 W 7 13 4 7 1020.6 1020.0 0.0
23/08:30am 19.1 17.8 9.9 55 5.0 WSW 7 11 4 6 1020.5 1019.9 0.0
23/08:00am 16.8 15.6 10.4 66 3.5 WSW 7 11 4 6 1020.5 1019.9 0.0
23/07:30am 14.6 14.6 9.8 73 2.5 CALM 0 0 0 0 1020.3 1019.7 0.0
23/07:00am 11.5 10.4 9.8 89 0.9 W 6 7 3 4 1019.9 1019.4 0.0
23/06:30am 9.7 7.9 7.3 85 1.2 WSW 6 9 3 5 1020.1 1019.5 0.0
23/06:00am 10.4 8.8 8.2 86 1.1 SSW 6 7 3 4 1019.7 1019.2 0.0
23/05:30am 10.4 10.0 8.2 86 1.1 CALM 0 0 0 0 1019.5 1019.0 0.0
23/05:00am 10.2 9.7 7.8 85 1.2 CALM 0 0 0 0 1019.3 1018.8 0.0
23/04:30am 10.2 9.5 7.1 81 1.5 CALM 0 0 0 0 1019.3 1018.8 0.0
23/04:00am 10.9 10.4 7.8 81 1.5 CALM 0 0 0 0 1019.3 1018.8 0.0
23/03:30am 11.2 9.9 7.7 79 1.7 W 4 7 2 4 1019.5 1019.0 0.0
23/03:00am 11.7 11.2 8.0 78 1.8 CALM 0 0 0 0 1019.7 1019.2 0.0
23/02:30am 12.1 11.6 7.8 75 2.1 CALM 0 0 0 0 1019.8 1019.3 0.0
23/02:00am 12.1 11.6 7.8 75 2.1 CALM 0 0 0 0 1020.1 1019.5 0.0
23/01:30am 12.4 11.9 7.9 74 2.3 CALM 0 0 0 0 1020.3 1019.7 0.0
23/01:00am 12.7 12.2 7.8 72 2.4 CALM 0 0 0 0 1020.3 1019.7 0.0
23/12:30am 13.3 11.7 8.2 71 2.6 S 6 7 3 4 1020.4 1019.8 0.0
23/12:00am 13.3 12.9 8.4 72 2.5 CALM 0 0 0 0 1020.7 1020.1 0.0
 
Date/Time
EDT
Temp
°C
App
Temp
°C
Dew
Point
Rel
Hum
%
Delta-T
°C
Wind Press
QNH
hPa
Press
MSL
hPa
Rain
since 9 am
mm
Dir
 
Spd
km/h
Gust
km/h
Spd
kts
Gust
kts
22/11:30pm 13.4 11.7 7.6 68 2.9 S 6 6 3 3 1020.8 1020.2 0.0
22/11:00pm 15.3 13.7 8.8 65 3.4 S 7 9 4 5 1020.7 1020.1 0.0
22/10:30pm 16.0 14.4 8.7 62 3.8 S 7 9 4 5 1020.7 1020.1 0.0
22/10:00pm 15.1 12.2 8.1 63 3.6 SE 13 15 7 8 1020.7 1020.1 0.0
22/09:30pm 17.0 14.9 8.4 57 4.5 E 9 11 5 6 1020.8 1020.2 0.0
22/09:00pm 17.7 15.9 8.0 53 5.0 E 7 11 4 6 1020.6 1020.0 0.0
22/08:30pm 19.7 17.6 8.1 47 6.1 ENE 9 13 5 7 1020.4 1019.8 0.0
22/08:00pm 21.0 18.2 8.6 45 6.6 ENE 13 20 7 11 1020.1 1019.5 0.0
22/07:30pm 21.6 19.5 8.1 42 7.2 E 9 13 5 7 1019.7 1019.2 0.0
22/07:00pm 23.9 21.4 8.3 37 8.4 ENE 11 15 6 8 1019.6 1019.1 0.0
22/06:30pm 26.2 24.6 8.7 33 9.7 ENE 7 13 4 7 1019.5 1019.0 0.0
22/06:00pm 27.0 24.3 8.9 32 10.0 NNE 13 15 7 8 1019.6 1019.1 0.0
22/05:30pm 27.3 25.3 8.7 31 10.3 ESE 9 13 5 7 1019.8 1019.3 0.0
22/05:00pm 27.5 25.9 8.9 31 10.3 NW 7 15 4 8 1019.9 1019.4 0.0
22/04:30pm 28.1 26.7 9.4 31 10.5 W 7 15 4 8 1020.2 1019.6 0.0
22/04:00pm 27.5 26.1 8.9 31 10.3 SW 6 11 3 6 1020.6 1020.0 0.0
22/03:30pm 27.3 25.5 9.6 33 10.0 SSE 9 13 5 7 1021.0 1020.4 0.0
22/03:00pm 27.0 25.6 9.4 33 9.8 ENE 7 15 4 8 1021.7 1021.2 0.0
22/02:30pm 26.4 24.6 9.3 34 9.5 E 9 19 5 10 1022.2 1021.7 0.0
22/02:00pm 25.2 23.0 9.5 37 8.7 SSW 11 19 6 10 1022.8 1022.3 0.0
22/01:30pm 23.9 21.8 8.3 37 8.4 W 9 19 5 10 1023.5 1022.9 0.0
22/01:00pm 22.8 20.6 7.8 38 8.0 ESE 9 15 5 8 1024.0 1023.5 0.0
22/12:30pm 22.2 20.4 8.0 40 7.6 NNE 7 13 4 7 1024.7 1024.2 0.0
22/12:00pm 21.4 19.3 8.3 43 7.0 SE 9 20 5 11 1025.2 1024.7 0.0
22/11:30am 20.2 18.0 7.9 45 6.5 S 9 13 5 7 1025.9 1025.3 0.0
22/11:00am 18.4 15.8 7.8 50 5.5 SE 11 17 6 9 1026.5 1026.0 0.0
22/10:30am 17.9 15.9 8.5 54 4.9 ESE 9 17 5 9 1026.9 1026.4 0.0
22/10:00am 16.4 13.8 7.6 56 4.5 ESE 11 20 6 11 1027.2 1026.7 0.0
22/09:30am 15.9 13.0 8.2 60 4.0 E 13 20 7 11 1027.2 1026.7 0.0
22/09:00am 14.4 11.4 7.7 64 3.4 ESE 13 20 7 11 1027.3 1026.8 0.0
22/08:30am 13.5 10.6 8.1 70 2.7 E 13 17 7 9 1027.4 1026.9 0.0
22/08:00am 12.4 10.0 8.7 78 1.9 ESE 11 17 6 9 1027.3 1026.8 0.0
22/07:30am 9.7 9.6 9.4 98 0.2 CALM 0 0 0 0 1027.5 1027.0 0.0
22/07:00am 6.3 4.1 6.0 98 0.1 ESE 7 9 4 5 1027.3 1026.8 0.0
22/06:30am 4.9 3.7 4.6 98 0.1 CALM 0 0 0 0 1027.0 1026.5 0.0
22/06:00am 5.3 4.2 5.0 98 0.1 CALM 0 0 0 0 1026.8 1026.3 0.0
22/05:30am 6.0 3.6 5.1 94 0.4 ESE 7 9 4 5 1026.6 1026.1 0.0
22/05:00am 6.9 4.3 6.0 94 0.4 ESE 9 11 5 6 1026.7 1026.2 0.0
22/04:30am 7.3 4.8 6.6 95 0.3 ESE 9 13 5 7 1026.8 1026.3 0.0
22/04:00am 7.7 4.5 6.8 94 0.4 SE 13 17 7 9 1027.0 1026.5 0.0
22/03:30am 7.8 5.3 6.6 92 0.6 SE 9 13 5 7 1027.2 1026.7 0.0
22/03:00am 8.1 5.3 6.9 92 0.6 SE 11 13 6 7 1027.5 1027.0 0.0
22/02:30am 8.0 5.4 6.3 89 0.8 ESE 9 9 5 5 1027.8 1027.3 0.0
22/02:00am 8.9 6.5 6.9 87 0.9 SE 9 11 5 6 1028.1 1027.6 0.0
22/01:30am 9.1 6.2 6.5 84 1.2 SE 11 13 6 7 1028.7 1028.2 0.0
22/01:00am 10.3 7.1 7.0 80 1.6 SE 13 17 7 9 1029.2 1028.7 0.0
22/12:30am 10.5 7.0 7.0 79 1.7 SE 15 20 8 11 1029.6 1029.1 0.0
22/12:00am 10.9 7.4 7.4 79 1.7 SE 15 20 8 11 1029.9 1029.4 0.0
 
Date/Time
EDT
Temp
°C
App
Temp
°C
Dew
Point
Rel
Hum
%
Delta-T
°C
Wind Press
QNH
hPa
Press
MSL
hPa
Rain
since 9 am
mm
Dir
 
Spd
km/h
Gust
km/h
Spd
kts
Gust
kts
21/11:30pm 10.5 7.1 7.7 83 1.4 ESE 15 17 8 9 1030.2 1029.7 0.0
21/11:00pm 10.4 7.7 7.3 81 1.5 ESE 11 17 6 9 1030.1 1029.6 0.0
21/10:30pm 11.4 8.0 7.5 77 1.9 ESE 15 19 8 10 1030.2 1029.7 0.0
21/10:00pm 11.0 7.6 7.5 79 1.7 ESE 15 17 8 9 1030.2 1029.7 0.0
21/09:30pm 11.6 8.5 7.1 74 2.2 ESE 13 19 7 10 1030.0 1029.5 0.0
21/09:00pm 12.6 9.1 7.3 70 2.6 ESE 15 22 8 12 1029.9 1029.4 0.0
21/08:30pm 13.5 9.3 7.3 66 3.1 ESE 19 26 10 14 1029.7 1029.2 0.0
21/08:00pm 14.3 9.5 7.4 63 3.4 ESE 22 33 12 18 1029.3 1028.8 0.0
21/07:30pm 14.8 9.6 7.4 61 3.7 ESE 24 32 13 17 1028.8 1028.3 0.0
21/07:00pm 15.7 10.6 7.5 58 4.1 SE 24 35 13 19 1028.6 1028.1 0.0
21/06:30pm 16.9 12.1 7.5 54 4.8 SE 22 32 12 17 1028.4 1028.0 0.0
21/06:00pm 18.2 13.5 7.6 50 5.4 ESE 22 32 12 17 1028.0 1027.5 0.0
21/05:30pm 18.7 13.2 7.5 48 5.8 ESE 26 39 14 21 1027.9 1027.4 0.0
21/05:00pm 18.8 13.6 7.3 47 5.9 ESE 24 35 13 19 1027.9 1027.4 0.0
21/04:30pm 19.3 14.3 8.0 48 5.9 ESE 24 37 13 20 1027.9 1027.4 0.0
21/04:00pm 19.5 14.5 7.9 47 6.0 ESE 24 33 13 18 1027.9 1027.4 0.0
21/03:30pm 19.9 15.3 8.3 47 6.1 E 22 35 12 19 1028.0 1027.5 0.0
21/03:00pm 20.3 15.0 8.3 46 6.3 ESE 26 35 14 19 1028.4 1028.0 0.0
21/02:30pm 20.7 15.5 8.7 46 6.4 SE 26 35 14 19 1028.8 1028.3 0.0
21/02:00pm 19.9 15.0 8.3 47 6.1 E 24 39 13 21 1029.2 1028.7 0.0
21/01:30pm 19.8 15.1 7.9 46 6.2 ESE 22 39 12 21 1029.6 1029.1 0.0
21/01:00pm 19.6 14.1 7.7 46 6.2 ESE 26 37 14 20 1030.1 1029.6 0.0
21/12:30pm 19.8 14.5 8.5 48 6.0 ESE 26 30 14 16 1030.4 1029.9 0.0
21/12:00pm 18.2 12.9 7.0 48 5.7 ESE 24 39 13 21 1030.7 1030.2 0.0
21/11:30am 18.1 13.3 8.7 54 5.0 ESE 24 33 13 18 1031.1 1030.7 0.0
21/11:00am 18.3 13.0 8.6 53 5.1 E 26 37 14 20 1031.4 1030.9 0.0
21/10:30am 17.5 11.6 8.9 57 4.5 ESE 30 39 16 21 1031.5 1031.0 0.0
21/10:00am 17.1 12.1 9.5 61 4.0 SE 26 35 14 19 1031.6 1031.1 0.0
21/09:30am 16.3 10.9 9.5 64 3.6 E 28 35 15 19 1031.6 1031.1 0.0
21/09:00am 14.8 9.9 9.8 72 2.6 ESE 26 35 14 19 1031.5 1031.0 0.0
21/08:30am 14.4 9.5 10.0 75 2.3 ESE 26 35 14 19 1031.4 1030.9 0.0
21/08:00am 13.7 9.2 10.1 79 1.9 E 24 32 13 17 1031.0 1030.6 0.0
21/07:30am 13.1 9.0 10.1 82 1.6 ESE 22 32 12 17 1030.6 1030.1 0.0
21/07:00am 12.7 9.0 10.2 85 1.3 E 20 28 11 15 1030.3 1029.8 0.0
21/06:30am 12.0 8.3 10.1 88 1.0 ESE 20 32 11 17 1029.9 1029.4 0.0
21/06:00am 11.5 7.9 9.9 90 0.8 ESE 19 26 10 14 1029.6 1029.1 0.0
21/05:30am 12.0 8.3 10.2 89 0.9 ESE 20 30 11 16 1029.3 1028.8 0.0
21/05:00am 12.7 8.2 10.2 85 1.3 ESE 24 33 13 18 1029.2 1028.7 0.0
21/04:30am 12.8 7.6 10.2 84 1.4 ESE 28 39 15 21 1029.2 1028.7 0.0
21/04:00am 12.8 7.6 10.3 85 1.3 ESE 28 39 15 21 1029.1 1028.6 0.0
21/03:30am 12.7 7.5 10.2 85 1.3 ESE 28 39 15 21 1029.1 1028.6 0.0
21/03:00am 13.1 8.4 10.6 85 1.3 ESE 26 35 14 19 1029.2 1028.7 0.0
21/02:30am 13.2 7.4 10.7 85 1.3 ESE 32 44 17 24 1029.3 1028.8 0.0
21/02:00am 13.3 8.3 10.8 85 1.3 ESE 28 39 15 21 1029.4 1028.9 0.0
21/01:30am 13.3 8.9 10.5 83 1.5 ESE 24 39 13 21 1029.6 1029.1 0.0
21/01:00am 13.5 8.0 10.7 83 1.5 ESE 30 43 16 23 1029.8 1029.3 0.0
21/12:30am 13.7 8.8 11.2 85 1.3 ESE 28 39 15 21 1030.0 1029.5 0.0
21/12:00am 13.9 8.5 10.9 82 1.6 ESE 30 43 16 23 1030.1 1029.6 0.0
 
Date/Time
EDT
Temp
°C
App
Temp
°C
Dew
Point
Rel
Hum
%
Delta-T
°C
Wind Press
QNH
hPa
Press
MSL
hPa
Rain
since 9 am
mm
Dir
 
Spd
km/h
Gust
km/h
Spd
kts
Gust
kts
20/11:30pm 14.0 9.1 11.2 83 1.5 ESE 28 43 15 23 1030.2 1029.7 0.0
20/11:00pm 14.3 8.7 11.6 84 1.5 ESE 32 48 17 26 1030.1 1029.6 0.0
20/10:30pm 14.4 9.2 11.7 84 1.5 ESE 30 41 16 22 1030.1 1029.6 0.0
20/10:00pm 14.2 10.5 12.6 90 0.9 SE 24 33 13 18 1029.9 1029.4 0.0
20/09:30pm 15.0 9.6 12.3 84 1.5 ESE 32 46 17 25 1029.8 1029.3 0.0
20/09:25pm 15.0 10.5 12.5 85 1.4 ESE 28 46 15 25 1029.7 1029.2 0.0
20/09:00pm 15.4 11.1 12.2 81 1.8 ESE 26 39 14 21 1029.4 1028.9 0.0
20/08:30pm 16.1 11.3 11.7 75 2.4 ESE 28 41 15 22 1029.1 1028.6 0.0
20/08:00pm 16.3 11.7 11.2 72 2.8 E 26 35 14 19 1028.6 1028.1 0.0
20/07:30pm 16.8 11.3 10.6 67 3.4 ESE 30 43 16 23 1028.2 1027.7 0.0
20/07:00pm 17.5 11.9 10.1 62 4.0 ESE 30 39 16 21 1027.8 1027.3 0.0
20/06:30pm 17.8 12.9 9.9 60 4.3 ESE 26 37 14 20 1027.6 1027.1 0.0
20/06:00pm 18.4 12.3 9.7 57 4.7 ESE 32 43 17 23 1027.5 1027.0 0.0
20/05:30pm 18.5 12.4 9.8 57 4.7 ESE 32 43 17 23 1027.4 1026.9 0.0
20/05:00pm 19.3 13.3 10.0 55 5.0 ESE 32 43 17 23 1027.2 1026.7 0.0
20/04:30pm 20.2 14.3 10.6 54 5.3 ESE 32 44 17 24 1026.9 1026.4 0.0
20/04:00pm 20.9 15.1 10.7 52 5.6 ESE 32 46 17 25 1027.0 1026.5 0.0
20/03:30pm 21.9 16.5 11.0 50 6.1 ESE 30 41 16 22 1027.0 1026.5 0.0
20/03:00pm 21.8 15.5 10.9 50 6.1 ESE 35 46 19 25 1027.2 1026.7 0.0
20/02:38pm 22.2 17.3 11.3 50 6.2 E 28 52 15 28 1027.2 1026.7 0.0
20/02:30pm 22.5 17.3 11.6 50 6.2 ESE 30 43 16 23 1027.3 1026.8 0.0
20/02:05pm 22.5 17.3 11.6 50 6.2 ESE 30 48 16 26 1027.6 1027.1 0.0
20/02:00pm 21.9 16.0 11.0 50 6.1 ESE 33 48 18 26 1027.8 1027.3 0.0
20/01:30pm 21.9 16.0 11.3 51 6.0 ESE 33 48 18 26 1027.9 1027.4 0.0
20/01:00pm 21.5 14.9 11.5 53 5.6 ESE 37 46 20 25 1027.9 1027.4 0.0
20/12:30pm 22.6 17.0 12.0 51 6.1 ESE 33 44 18 24 1027.9 1027.4 0.0
20/12:00pm 22.2 16.5 11.9 52 5.9 ESE 33 48 18 26 1028.1 1027.6 0.0

Other Formats:

Comma delimited format used in spreadsheet applications
http://www.bom.gov.au/fwo/IDN60801/IDN60801.95754.axf

JavaScript Object Notation format (JSON) in row-major order
http://www.bom.gov.au/fwo/IDN60801/IDN60801.95754.json